18.3 C
London
Saturday, October 1, 2022

INCIDENT: Egypt Boeing 737 Burst Nose Tyres On Touch Down

- Advertisement - Booking.com
- Advertisement -spot_imgspot_imgspot_imgspot_img

At 16:41L (13:41Z), an Egypt Air Boeing 737-800, registration SU-GEE, was landing on Madinah’s runway with 154 passengers and 6 crew on flight MS-2677 from Cairo (Egypt) to Madinah (Saudi Arabia) when both nose tyres burst, causing tyre debris to damage the fuselage, engines, and wings.

The plane stopped on the runway and was disabled.

Damage to the underbelly of the left engine (CFM56) was also discovered during the post-flight inspection, indicating a possible pod strike.

For nearly 3 hours, the runway and airport had to be closed.

Related NOTAM:

A1442/21 NOTAMN
Q) OEJD/QMRLC/IV/NBO/A /000/999/2433N03942E005
A) OEMA B) 2110251700 C) 2110252200
E) RWY 17/35 CLSD.

Metars:

OEMA 251500Z 24008KT CAVOK 34/M02 Q1014 NOSIG=
OEMA 251400Z 21005KT CAVOK 34/M03 Q1014 NOSIG=
OEMA 251300Z 19003KT CAVOK 34/M02 Q1014 NOSIG=
OEMA 251200Z 11005KT CAVOK 34/M02 Q1015 NOSIG=

Source and Photos: Avhearld

- Advertisement -
Latest news
- Advertisement - Get a .com now from $4.99*/yr with GoDaddy!
- Advertisement -
- Advertisement -
Related news
- Advertisement -spot_img

LEAVE A REPLY

Please enter your comment!
Please enter your name here